sensor_id;sensor_type;location;lat;lon;timestamp;P1;durP1;ratioP1;P2;durP2;ratioP2
3054;SDS011;1537;52.018;8.542;2023-03-01T00:00:53;18.40;;;9.33;;
3054;SDS011;1537;52.018;8.542;2023-03-01T00:04:17;12.00;;;9.70;;
3054;SDS011;1537;52.018;8.542;2023-03-01T00:07:40;17.13;;;10.70;;
3054;SDS011;1537;52.018;8.542;2023-03-01T00:11:07;13.50;;;8.70;;
3054;SDS011;1537;52.018;8.542;2023-03-01T00:14:36;15.27;;;10.03;;
3054;SDS011;1537;52.018;8.542;2023-03-01T00:18:00;16.67;;;9.80;;
3054;SDS011;1537;52.018;8.542;2023-03-01T00:21:32;11.17;;;9.13;;
3054;SDS011;1537;52.018;8.542;2023-03-01T00:24:56;12.20;;;9.40;;
3054;SDS011;1537;52.018;8.542;2023-03-01T00:28:22;14.73;;;9.43;;
3054;SDS011;1537;52.018;8.542;2023-03-01T00:31:47;13.53;;;9.00;;
3054;SDS011;1537;52.018;8.542;2023-03-01T00:35:11;15.10;;;10.20;;
3054;SDS011;1537;52.018;8.542;2023-03-01T00:38:35;13.03;;;8.50;;
3054;SDS011;1537;52.018;8.542;2023-03-01T00:42:00;14.50;;;9.70;;
3054;SDS011;1537;52.018;8.542;2023-03-01T00:45:25;19.73;;;9.33;;
3054;SDS011;1537;52.018;8.542;2023-03-01T00:48:50;17.90;;;10.60;;
3054;SDS011;1537;52.018;8.542;2023-03-01T00:52:14;15.63;;;10.73;;
3054;SDS011;1537;52.018;8.542;2023-03-01T00:55:38;16.00;;;11.30;;
3054;SDS011;1537;52.018;8.542;2023-03-01T00:59:02;19.40;;;13.50;;
3054;SDS011;1537;52.018;8.542;2023-03-01T01:02:29;17.73;;;11.47;;
3054;SDS011;1537;52.018;8.542;2023-03-01T01:05:59;16.87;;;10.93;;
3054;SDS011;1537;52.018;8.542;2023-03-01T01:09:33;14.60;;;11.33;;
3054;SDS011;1537;52.018;8.542;2023-03-01T01:12:57;17.13;;;10.47;;
3054;SDS011;1537;52.018;8.542;2023-03-01T01:16:21;13.53;;;9.57;;
3054;SDS011;1537;52.018;8.542;2023-03-01T01:19:48;13.97;;;9.90;;
3054;SDS011;1537;52.018;8.542;2023-03-01T01:23:12;17.33;;;10.70;;
3054;SDS011;1537;52.018;8.542;2023-03-01T01:26:36;15.17;;;11.73;;
3054;SDS011;1537;52.018;8.542;2023-03-01T01:30:00;17.70;;;10.60;;
3054;SDS011;1537;52.018;8.542;2023-03-01T01:33:24;14.43;;;9.73;;
3054;SDS011;1537;52.018;8.542;2023-03-01T01:36:50;14.40;;;9.40;;
3054;SDS011;1537;52.018;8.542;2023-03-01T01:40:16;15.87;;;9.70;;
3054;SDS011;1537;52.018;8.542;2023-03-01T01:43:41;17.40;;;11.40;;
3054;SDS011;1537;52.018;8.542;2023-03-01T01:47:06;15.67;;;10.00;;
3054;SDS011;1537;52.018;8.542;2023-03-01T01:50:36;13.87;;;9.70;;
3054;SDS011;1537;52.018;8.542;2023-03-01T01:54:07;18.43;;;9.37;;
3054;SDS011;1537;52.018;8.542;2023-03-01T01:57:36;16.57;;;11.87;;
3054;SDS011;1537;52.018;8.542;2023-03-01T02:01:02;15.70;;;11.13;;
3054;SDS011;1537;52.018;8.542;2023-03-01T02:04:27;12.03;;;9.00;;
3054;SDS011;1537;52.018;8.542;2023-03-01T02:07:51;16.47;;;10.53;;
3054;SDS011;1537;52.018;8.542;2023-03-01T02:11:18;13.77;;;10.23;;
3054;SDS011;1537;52.018;8.542;2023-03-01T02:14:44;15.40;;;9.53;;
3054;SDS011;1537;52.018;8.542;2023-03-01T02:18:08;13.17;;;9.80;;
3054;SDS011;1537;52.018;8.542;2023-03-01T02:21:40;14.77;;;9.50;;
3054;SDS011;1537;52.018;8.542;2023-03-01T02:25:27;13.30;;;9.60;;
3054;SDS011;1537;52.018;8.542;2023-03-01T02:29:00;14.60;;;10.47;;
3054;SDS011;1537;52.018;8.542;2023-03-01T02:32:25;17.30;;;9.93;;
3054;SDS011;1537;52.018;8.542;2023-03-01T02:35:50;14.80;;;9.93;;
3054;SDS011;1537;52.018;8.542;2023-03-01T02:39:17;15.07;;;10.43;;
3054;SDS011;1537;52.018;8.542;2023-03-01T02:42:45;12.90;;;9.03;;
3054;SDS011;1537;52.018;8.542;2023-03-01T02:46:17;14.80;;;10.40;;
3054;SDS011;1537;52.018;8.542;2023-03-01T02:49:43;17.17;;;10.70;;
3054;SDS011;1537;52.018;8.542;2023-03-01T02:53:08;13.87;;;10.00;;
3054;SDS011;1537;52.018;8.542;2023-03-01T02:56:36;13.50;;;9.90;;
3054;SDS011;1537;52.018;8.542;2023-03-01T03:00:01;15.83;;;10.47;;
3054;SDS011;1537;52.018;8.542;2023-03-01T03:03:32;15.33;;;10.40;;
3054;SDS011;1537;52.018;8.542;2023-03-01T03:06:56;17.43;;;10.70;;
3054;SDS011;1537;52.018;8.542;2023-03-01T03:10:22;13.80;;;9.80;;
3054;SDS011;1537;52.018;8.542;2023-03-01T03:13:47;15.47;;;10.43;;
3054;SDS011;1537;52.018;8.542;2023-03-01T03:17:12;12.77;;;9.67;;
3054;SDS011;1537;52.018;8.542;2023-03-01T03:20:38;11.53;;;8.80;;
3054;SDS011;1537;52.018;8.542;2023-03-01T03:24:03;17.50;;;11.40;;
3054;SDS011;1537;52.018;8.542;2023-03-01T03:27:28;13.67;;;10.10;;
3054;SDS011;1537;52.018;8.542;2023-03-01T03:30:54;17.93;;;11.30;;
3054;SDS011;1537;52.018;8.542;2023-03-01T03:34:18;14.03;;;10.00;;
3054;SDS011;1537;52.018;8.542;2023-03-01T03:37:43;13.93;;;10.67;;
3054;SDS011;1537;52.018;8.542;2023-03-01T03:41:36;19.03;;;11.13;;
3054;SDS011;1537;52.018;8.542;2023-03-01T03:45:00;13.93;;;9.10;;
3054;SDS011;1537;52.018;8.542;2023-03-01T03:48:24;12.87;;;10.03;;
3054;SDS011;1537;52.018;8.542;2023-03-01T03:51:52;16.93;;;10.47;;
3054;SDS011;1537;52.018;8.542;2023-03-01T03:55:17;15.60;;;10.67;;
3054;SDS011;1537;52.018;8.542;2023-03-01T03:58:42;17.53;;;10.73;;
3054;SDS011;1537;52.018;8.542;2023-03-01T04:02:05;14.50;;;10.73;;
3054;SDS011;1537;52.018;8.542;2023-03-01T04:05:32;15.97;;;9.50;;
3054;SDS011;1537;52.018;8.542;2023-03-01T04:08:58;18.73;;;13.20;;
3054;SDS011;1537;52.018;8.542;2023-03-01T04:12:26;15.57;;;10.87;;
3054;SDS011;1537;52.018;8.542;2023-03-01T04:15:50;18.63;;;10.50;;
3054;SDS011;1537;52.018;8.542;2023-03-01T04:19:15;16.03;;;10.20;;
3054;SDS011;1537;52.018;8.542;2023-03-01T04:22:39;18.53;;;11.37;;
3054;SDS011;1537;52.018;8.542;2023-03-01T04:26:03;15.23;;;10.63;;
3054;SDS011;1537;52.018;8.542;2023-03-01T04:29:28;17.47;;;11.20;;
3054;SDS011;1537;52.018;8.542;2023-03-01T04:32:53;19.17;;;10.80;;
3054;SDS011;1537;52.018;8.542;2023-03-01T04:36:17;12.33;;;9.03;;
3054;SDS011;1537;52.018;8.542;2023-03-01T04:39:43;17.63;;;10.67;;
3054;SDS011;1537;52.018;8.542;2023-03-01T04:43:08;14.90;;;10.10;;
3054;SDS011;1537;52.018;8.542;2023-03-01T04:46:35;14.13;;;10.40;;
3054;SDS011;1537;52.018;8.542;2023-03-01T04:49:59;15.00;;;10.50;;
3054;SDS011;1537;52.018;8.542;2023-03-01T04:53:23;15.87;;;10.63;;
3054;SDS011;1537;52.018;8.542;2023-03-01T04:56:47;16.20;;;10.53;;
3054;SDS011;1537;52.018;8.542;2023-03-01T05:00:12;16.23;;;10.07;;
3054;SDS011;1537;52.018;8.542;2023-03-01T05:03:51;17.10;;;10.00;;
3054;SDS011;1537;52.018;8.542;2023-03-01T05:07:16;16.13;;;10.90;;
3054;SDS011;1537;52.018;8.542;2023-03-01T05:10:41;16.40;;;10.40;;
3054;SDS011;1537;52.018;8.542;2023-03-01T05:14:08;15.03;;;10.60;;
3054;SDS011;1537;52.018;8.542;2023-03-01T05:17:32;14.37;;;10.37;;
3054;SDS011;1537;52.018;8.542;2023-03-01T05:21:02;21.60;;;10.60;;
3054;SDS011;1537;52.018;8.542;2023-03-01T05:24:28;20.17;;;11.80;;
3054;SDS011;1537;52.018;8.542;2023-03-01T05:27:53;16.30;;;10.57;;
3054;SDS011;1537;52.018;8.542;2023-03-01T05:31:18;18.80;;;12.60;;
3054;SDS011;1537;52.018;8.542;2023-03-01T05:34:42;20.00;;;11.83;;
3054;SDS011;1537;52.018;8.542;2023-03-01T05:38:10;15.90;;;10.30;;
3054;SDS011;1537;52.018;8.542;2023-03-01T05:41:35;13.00;;;10.70;;
3054;SDS011;1537;52.018;8.542;2023-03-01T05:44:59;14.30;;;10.60;;
3054;SDS011;1537;52.018;8.542;2023-03-01T05:48:23;17.30;;;11.00;;
3054;SDS011;1537;52.018;8.542;2023-03-01T05:51:48;17.53;;;12.47;;
3054;SDS011;1537;52.018;8.542;2023-03-01T05:55:15;13.77;;;10.43;;
3054;SDS011;1537;52.018;8.542;2023-03-01T05:58:39;17.73;;;12.23;;
3054;SDS011;1537;52.018;8.542;2023-03-01T06:02:03;19.53;;;11.73;;
3054;SDS011;1537;52.018;8.542;2023-03-01T06:05:28;19.87;;;12.83;;
3054;SDS011;1537;52.018;8.542;2023-03-01T06:08:53;22.57;;;12.40;;
3054;SDS011;1537;52.018;8.542;2023-03-01T06:12:18;20.13;;;11.83;;
3054;SDS011;1537;52.018;8.542;2023-03-01T06:15:42;21.50;;;15.00;;
3054;SDS011;1537;52.018;8.542;2023-03-01T06:19:06;25.90;;;18.27;;
3054;SDS011;1537;52.018;8.542;2023-03-01T06:22:30;19.73;;;14.20;;
3054;SDS011;1537;52.018;8.542;2023-03-01T06:25:54;29.60;;;14.17;;
3054;SDS011;1537;52.018;8.542;2023-03-01T06:29:20;15.10;;;12.80;;
3054;SDS011;1537;52.018;8.542;2023-03-01T06:32:44;16.97;;;11.73;;
3054;SDS011;1537;52.018;8.542;2023-03-01T06:36:08;15.10;;;12.23;;
3054;SDS011;1537;52.018;8.542;2023-03-01T06:39:33;20.77;;;13.70;;
3054;SDS011;1537;52.018;8.542;2023-03-01T06:42:57;18.63;;;13.00;;
3054;SDS011;1537;52.018;8.542;2023-03-01T06:46:25;17.87;;;13.10;;
3054;SDS011;1537;52.018;8.542;2023-03-01T06:49:50;25.90;;;12.00;;
3054;SDS011;1537;52.018;8.542;2023-03-01T06:53:14;17.27;;;12.40;;
3054;SDS011;1537;52.018;8.542;2023-03-01T06:56:39;17.60;;;13.20;;
3054;SDS011;1537;52.018;8.542;2023-03-01T07:00:03;19.77;;;13.63;;
3054;SDS011;1537;52.018;8.542;2023-03-01T07:03:31;16.40;;;12.03;;
3054;SDS011;1537;52.018;8.542;2023-03-01T07:06:54;21.03;;;12.77;;
3054;SDS011;1537;52.018;8.542;2023-03-01T07:10:18;22.93;;;13.20;;
3054;SDS011;1537;52.018;8.542;2023-03-01T07:13:42;16.37;;;11.17;;
3054;SDS011;1537;52.018;8.542;2023-03-01T07:17:06;16.30;;;11.67;;
3054;SDS011;1537;52.018;8.542;2023-03-01T07:20:32;17.77;;;12.30;;
3054;SDS011;1537;52.018;8.542;2023-03-01T07:23:56;15.90;;;12.30;;
3054;SDS011;1537;52.018;8.542;2023-03-01T07:27:20;17.17;;;12.33;;
3054;SDS011;1537;52.018;8.542;2023-03-01T07:30:44;27.87;;;13.30;;
3054;SDS011;1537;52.018;8.542;2023-03-01T07:34:08;17.47;;;13.13;;
3054;SDS011;1537;52.018;8.542;2023-03-01T07:37:36;18.13;;;13.13;;
3054;SDS011;1537;52.018;8.542;2023-03-01T07:41:01;16.53;;;11.80;;
3054;SDS011;1537;52.018;8.542;2023-03-01T07:44:28;15.53;;;11.70;;
3054;SDS011;1537;52.018;8.542;2023-03-01T07:47:52;18.97;;;11.67;;
3054;SDS011;1537;52.018;8.542;2023-03-01T07:51:17;13.57;;;11.17;;
3054;SDS011;1537;52.018;8.542;2023-03-01T07:54:47;17.00;;;12.00;;
3054;SDS011;1537;52.018;8.542;2023-03-01T07:58:11;19.47;;;12.30;;
3054;SDS011;1537;52.018;8.542;2023-03-01T08:01:35;24.37;;;13.77;;
3054;SDS011;1537;52.018;8.542;2023-03-01T08:04:59;19.20;;;12.70;;
3054;SDS011;1537;52.018;8.542;2023-03-01T08:08:24;19.83;;;12.97;;
3054;SDS011;1537;52.018;8.542;2023-03-01T08:11:52;15.07;;;11.57;;
3054;SDS011;1537;52.018;8.542;2023-03-01T08:15:16;19.17;;;10.70;;
3054;SDS011;1537;52.018;8.542;2023-03-01T08:18:41;15.90;;;10.60;;
3054;SDS011;1537;52.018;8.542;2023-03-01T08:22:05;14.57;;;11.10;;
3054;SDS011;1537;52.018;8.542;2023-03-01T08:25:29;16.20;;;11.23;;
3054;SDS011;1537;52.018;8.542;2023-03-01T08:28:54;13.77;;;10.20;;
3054;SDS011;1537;52.018;8.542;2023-03-01T08:32:17;20.93;;;11.37;;
3054;SDS011;1537;52.018;8.542;2023-03-01T08:35:41;19.20;;;12.10;;
3054;SDS011;1537;52.018;8.542;2023-03-01T08:39:05;15.20;;;10.10;;
3054;SDS011;1537;52.018;8.542;2023-03-01T08:42:30;16.43;;;10.50;;
3054;SDS011;1537;52.018;8.542;2023-03-01T08:45:55;13.57;;;10.97;;
3054;SDS011;1537;52.018;8.542;2023-03-01T08:49:19;16.43;;;11.40;;
3054;SDS011;1537;52.018;8.542;2023-03-01T08:52:43;12.10;;;10.00;;
3054;SDS011;1537;52.018;8.542;2023-03-01T08:56:07;15.23;;;11.97;;
3054;SDS011;1537;52.018;8.542;2023-03-01T08:59:31;14.10;;;11.37;;
3054;SDS011;1537;52.018;8.542;2023-03-01T09:03:00;18.20;;;11.50;;
3054;SDS011;1537;52.018;8.542;2023-03-01T09:06:24;13.13;;;11.43;;
3054;SDS011;1537;52.018;8.542;2023-03-01T09:09:47;17.60;;;12.17;;
3054;SDS011;1537;52.018;8.542;2023-03-01T09:13:11;21.23;;;11.93;;
3054;SDS011;1537;52.018;8.542;2023-03-01T09:16:34;13.80;;;10.40;;
3054;SDS011;1537;52.018;8.542;2023-03-01T09:20:00;17.90;;;12.33;;
3054;SDS011;1537;52.018;8.542;2023-03-01T09:23:27;13.23;;;10.13;;
3054;SDS011;1537;52.018;8.542;2023-03-01T09:26:52;13.40;;;10.47;;
3054;SDS011;1537;52.018;8.542;2023-03-01T09:30:16;15.10;;;11.27;;
3054;SDS011;1537;52.018;8.542;2023-03-01T09:33:40;15.80;;;11.00;;
3054;SDS011;1537;52.018;8.542;2023-03-01T09:37:06;18.90;;;11.10;;
3054;SDS011;1537;52.018;8.542;2023-03-01T09:40:29;18.20;;;11.13;;
3054;SDS011;1537;52.018;8.542;2023-03-01T09:43:53;14.37;;;9.67;;
3054;SDS011;1537;52.018;8.542;2023-03-01T09:47:21;14.13;;;9.53;;
3054;SDS011;1537;52.018;8.542;2023-03-01T09:50:47;17.13;;;9.90;;
3054;SDS011;1537;52.018;8.542;2023-03-01T09:54:12;12.80;;;9.77;;
3054;SDS011;1537;52.018;8.542;2023-03-01T09:57:36;11.63;;;8.93;;
3054;SDS011;1537;52.018;8.542;2023-03-01T10:01:23;13.20;;;9.47;;
3054;SDS011;1537;52.018;8.542;2023-03-01T10:04:55;13.83;;;10.10;;
3054;SDS011;1537;52.018;8.542;2023-03-01T10:08:29;18.43;;;10.30;;
3054;SDS011;1537;52.018;8.542;2023-03-01T10:11:59;13.80;;;8.80;;
3054;SDS011;1537;52.018;8.542;2023-03-01T10:15:25;13.57;;;9.83;;
3054;SDS011;1537;52.018;8.542;2023-03-01T10:18:58;20.03;;;10.17;;
3054;SDS011;1537;52.018;8.542;2023-03-01T10:22:25;12.17;;;9.20;;
3054;SDS011;1537;52.018;8.542;2023-03-01T10:25:55;20.40;;;9.30;;
3054;SDS011;1537;52.018;8.542;2023-03-01T10:29:33;14.13;;;8.57;;
3054;SDS011;1537;52.018;8.542;2023-03-01T10:33:01;12.43;;;8.30;;
3054;SDS011;1537;52.018;8.542;2023-03-01T10:36:25;11.57;;;8.47;;
3054;SDS011;1537;52.018;8.542;2023-03-01T10:39:56;12.70;;;8.83;;
3054;SDS011;1537;52.018;8.542;2023-03-01T10:43:23;13.10;;;9.10;;
3054;SDS011;1537;52.018;8.542;2023-03-01T10:46:48;16.03;;;9.50;;
3054;SDS011;1537;52.018;8.542;2023-03-01T10:50:23;11.20;;;7.90;;
3054;SDS011;1537;52.018;8.542;2023-03-01T10:53:48;9.60;;;7.00;;
3054;SDS011;1537;52.018;8.542;2023-03-01T10:57:23;12.97;;;8.77;;
3054;SDS011;1537;52.018;8.542;2023-03-01T11:00:53;11.17;;;7.57;;
3054;SDS011;1537;52.018;8.542;2023-03-01T11:04:20;11.43;;;8.20;;
3054;SDS011;1537;52.018;8.542;2023-03-01T11:07:47;13.83;;;7.60;;
3054;SDS011;1537;52.018;8.542;2023-03-01T11:11:17;14.93;;;6.63;;
3054;SDS011;1537;52.018;8.542;2023-03-01T11:14:46;13.20;;;6.87;;
3054;SDS011;1537;52.018;8.542;2023-03-01T11:18:18;10.90;;;7.07;;
3054;SDS011;1537;52.018;8.542;2023-03-01T11:21:55;9.63;;;7.07;;
3054;SDS011;1537;52.018;8.542;2023-03-01T11:25:24;11.03;;;6.70;;
3054;SDS011;1537;52.018;8.542;2023-03-01T11:28:51;12.63;;;8.17;;
3054;SDS011;1537;52.018;8.542;2023-03-01T11:32:19;11.37;;;7.90;;
3054;SDS011;1537;52.018;8.542;2023-03-01T11:35:47;11.43;;;7.10;;
3054;SDS011;1537;52.018;8.542;2023-03-01T11:39:21;12.50;;;6.50;;
3054;SDS011;1537;52.018;8.542;2023-03-01T11:42:56;10.57;;;6.47;;
3054;SDS011;1537;52.018;8.542;2023-03-01T11:46:37;9.57;;;4.57;;
3054;SDS011;1537;52.018;8.542;2023-03-01T11:50:20;14.87;;;4.80;;
3054;SDS011;1537;52.018;8.542;2023-03-01T11:54:01;7.83;;;4.13;;
3054;SDS011;1537;52.018;8.542;2023-03-01T11:57:47;8.00;;;5.30;;
3054;SDS011;1537;52.018;8.542;2023-03-01T12:01:25;9.93;;;6.30;;
3054;SDS011;1537;52.018;8.542;2023-03-01T12:09:06;8.87;;;5.23;;
3054;SDS011;1537;52.018;8.542;2023-03-01T12:12:47;10.13;;;4.43;;
3054;SDS011;1537;52.018;8.542;2023-03-01T12:16:55;7.60;;;4.50;;
3054;SDS011;1537;52.018;8.542;2023-03-01T12:20:30;9.63;;;4.67;;
3054;SDS011;1537;52.018;8.542;2023-03-01T12:24:14;10.80;;;6.00;;
3054;SDS011;1537;52.018;8.542;2023-03-01T12:39:39;10.00;;;4.17;;
3054;SDS011;1537;52.018;8.542;2023-03-01T12:43:17;9.47;;;5.93;;
3054;SDS011;1537;52.018;8.542;2023-03-01T12:46:54;6.80;;;4.67;;
3054;SDS011;1537;52.018;8.542;2023-03-01T12:50:32;11.03;;;6.60;;
3054;SDS011;1537;52.018;8.542;2023-03-01T12:54:05;7.50;;;4.90;;
3054;SDS011;1537;52.018;8.542;2023-03-01T12:57:37;10.10;;;6.10;;
3054;SDS011;1537;52.018;8.542;2023-03-01T13:01:13;7.40;;;4.33;;
3054;SDS011;1537;52.018;8.542;2023-03-01T13:04:51;8.43;;;5.20;;
3054;SDS011;1537;52.018;8.542;2023-03-01T13:08:22;8.50;;;5.80;;
3054;SDS011;1537;52.018;8.542;2023-03-01T13:11:51;8.30;;;4.70;;
3054;SDS011;1537;52.018;8.542;2023-03-01T13:15:30;13.90;;;4.90;;
3054;SDS011;1537;52.018;8.542;2023-03-01T13:19:06;8.60;;;4.43;;
3054;SDS011;1537;52.018;8.542;2023-03-01T13:22:33;9.00;;;5.37;;
3054;SDS011;1537;52.018;8.542;2023-03-01T13:26:12;9.50;;;6.07;;
3054;SDS011;1537;52.018;8.542;2023-03-01T13:29:43;6.23;;;3.87;;
3054;SDS011;1537;52.018;8.542;2023-03-01T13:37:08;7.13;;;4.17;;
3054;SDS011;1537;52.018;8.542;2023-03-01T13:44:24;9.43;;;4.83;;
3054;SDS011;1537;52.018;8.542;2023-03-01T13:47:55;7.17;;;4.23;;
3054;SDS011;1537;52.018;8.542;2023-03-01T13:51:23;10.50;;;4.80;;
3054;SDS011;1537;52.018;8.542;2023-03-01T13:54:48;6.53;;;3.93;;
3054;SDS011;1537;52.018;8.542;2023-03-01T13:58:16;7.27;;;4.10;;
3054;SDS011;1537;52.018;8.542;2023-03-01T14:01:51;7.90;;;4.87;;
3054;SDS011;1537;52.018;8.542;2023-03-01T14:05:17;9.60;;;4.33;;
3054;SDS011;1537;52.018;8.542;2023-03-01T14:08:40;8.50;;;4.83;;
3054;SDS011;1537;52.018;8.542;2023-03-01T14:12:08;10.47;;;5.20;;
3054;SDS011;1537;52.018;8.542;2023-03-01T14:15:45;11.00;;;4.87;;
3054;SDS011;1537;52.018;8.542;2023-03-01T14:19:20;9.40;;;5.07;;
3054;SDS011;1537;52.018;8.542;2023-03-01T14:22:55;7.60;;;4.27;;
3054;SDS011;1537;52.018;8.542;2023-03-01T14:26:21;6.63;;;4.20;;
3054;SDS011;1537;52.018;8.542;2023-03-01T14:29:53;10.40;;;5.60;;
3054;SDS011;1537;52.018;8.542;2023-03-01T14:33:21;9.30;;;4.50;;
3054;SDS011;1537;52.018;8.542;2023-03-01T14:36:46;8.90;;;5.07;;
3054;SDS011;1537;52.018;8.542;2023-03-01T14:40:19;8.40;;;4.57;;
3054;SDS011;1537;52.018;8.542;2023-03-01T14:43:46;10.03;;;4.97;;
3054;SDS011;1537;52.018;8.542;2023-03-01T14:47:14;10.10;;;5.23;;
3054;SDS011;1537;52.018;8.542;2023-03-01T14:50:44;7.50;;;4.77;;
3054;SDS011;1537;52.018;8.542;2023-03-01T14:54:18;7.40;;;3.83;;
3054;SDS011;1537;52.018;8.542;2023-03-01T14:57:44;7.50;;;3.70;;
3054;SDS011;1537;52.018;8.542;2023-03-01T15:01:12;7.10;;;4.00;;
3054;SDS011;1537;52.018;8.542;2023-03-01T15:04:38;8.43;;;4.63;;
3054;SDS011;1537;52.018;8.542;2023-03-01T15:08:05;6.90;;;4.43;;
3054;SDS011;1537;52.018;8.542;2023-03-01T15:11:30;8.03;;;4.40;;
3054;SDS011;1537;52.018;8.542;2023-03-01T15:14:55;6.10;;;3.90;;
3054;SDS011;1537;52.018;8.542;2023-03-01T15:18:26;7.87;;;4.50;;
3054;SDS011;1537;52.018;8.542;2023-03-01T15:21:51;7.47;;;4.57;;
3054;SDS011;1537;52.018;8.542;2023-03-01T15:25:17;8.30;;;4.40;;
3054;SDS011;1537;52.018;8.542;2023-03-01T15:28:48;6.70;;;4.37;;
3054;SDS011;1537;52.018;8.542;2023-03-01T15:32:23;6.67;;;3.43;;
3054;SDS011;1537;52.018;8.542;2023-03-01T15:35:50;9.17;;;5.20;;
3054;SDS011;1537;52.018;8.542;2023-03-01T15:39:35;8.20;;;5.10;;
3054;SDS011;1537;52.018;8.542;2023-03-01T15:43:03;7.37;;;4.13;;
3054;SDS011;1537;52.018;8.542;2023-03-01T15:46:28;5.73;;;3.40;;
3054;SDS011;1537;52.018;8.542;2023-03-01T15:49:55;7.23;;;4.17;;
3054;SDS011;1537;52.018;8.542;2023-03-01T15:53:20;5.13;;;3.00;;
3054;SDS011;1537;52.018;8.542;2023-03-01T15:56:44;7.13;;;4.43;;
3054;SDS011;1537;52.018;8.542;2023-03-01T16:00:10;8.93;;;5.00;;
3054;SDS011;1537;52.018;8.542;2023-03-01T16:03:36;8.60;;;4.40;;
3054;SDS011;1537;52.018;8.542;2023-03-01T16:06:59;8.50;;;4.47;;
3054;SDS011;1537;52.018;8.542;2023-03-01T16:10:23;9.40;;;4.80;;
3054;SDS011;1537;52.018;8.542;2023-03-01T16:13:47;6.00;;;3.97;;
3054;SDS011;1537;52.018;8.542;2023-03-01T16:17:12;6.40;;;4.03;;
3054;SDS011;1537;52.018;8.542;2023-03-01T16:20:37;8.10;;;4.03;;
3054;SDS011;1537;52.018;8.542;2023-03-01T16:24:00;8.90;;;5.40;;
3054;SDS011;1537;52.018;8.542;2023-03-01T16:27:24;7.60;;;4.10;;
3054;SDS011;1537;52.018;8.542;2023-03-01T16:30:48;9.37;;;4.80;;
3054;SDS011;1537;52.018;8.542;2023-03-01T16:34:14;9.17;;;4.30;;
3054;SDS011;1537;52.018;8.542;2023-03-01T16:37:38;7.50;;;4.50;;
3054;SDS011;1537;52.018;8.542;2023-03-01T16:41:02;7.93;;;4.70;;
3054;SDS011;1537;52.018;8.542;2023-03-01T16:44:27;8.47;;;4.67;;
3054;SDS011;1537;52.018;8.542;2023-03-01T16:47:50;8.13;;;4.90;;
3054;SDS011;1537;52.018;8.542;2023-03-01T16:51:18;6.97;;;4.37;;
3054;SDS011;1537;52.018;8.542;2023-03-01T16:54:42;7.57;;;4.43;;
3054;SDS011;1537;52.018;8.542;2023-03-01T16:58:06;5.70;;;3.80;;
3054;SDS011;1537;52.018;8.542;2023-03-01T17:01:31;7.30;;;4.20;;
3054;SDS011;1537;52.018;8.542;2023-03-01T17:05:01;9.80;;;4.50;;
3054;SDS011;1537;52.018;8.542;2023-03-01T17:08:27;10.50;;;5.07;;
3054;SDS011;1537;52.018;8.542;2023-03-01T17:11:50;8.27;;;4.70;;
3054;SDS011;1537;52.018;8.542;2023-03-01T17:15:14;9.30;;;4.53;;
3054;SDS011;1537;52.018;8.542;2023-03-01T17:18:37;8.70;;;5.23;;
3054;SDS011;1537;52.018;8.542;2023-03-01T17:22:01;8.43;;;5.60;;
3054;SDS011;1537;52.018;8.542;2023-03-01T17:25:26;10.60;;;5.47;;
3054;SDS011;1537;52.018;8.542;2023-03-01T17:28:50;8.00;;;5.87;;
3054;SDS011;1537;52.018;8.542;2023-03-01T17:32:13;10.63;;;6.33;;
3054;SDS011;1537;52.018;8.542;2023-03-01T17:35:37;7.63;;;4.80;;
3054;SDS011;1537;52.018;8.542;2023-03-01T17:39:01;9.60;;;5.40;;
3054;SDS011;1537;52.018;8.542;2023-03-01T17:42:26;11.23;;;4.97;;
3054;SDS011;1537;52.018;8.542;2023-03-01T17:45:50;7.73;;;5.30;;
3054;SDS011;1537;52.018;8.542;2023-03-01T17:49:15;8.53;;;5.60;;
3054;SDS011;1537;52.018;8.542;2023-03-01T17:52:39;9.97;;;6.07;;
3054;SDS011;1537;52.018;8.542;2023-03-01T17:56:04;13.63;;;5.90;;
3054;SDS011;1537;52.018;8.542;2023-03-01T17:59:30;9.67;;;6.27;;
3054;SDS011;1537;52.018;8.542;2023-03-01T18:02:54;10.00;;;6.53;;
3054;SDS011;1537;52.018;8.542;2023-03-01T18:06:19;9.80;;;6.30;;
3054;SDS011;1537;52.018;8.542;2023-03-01T18:09:44;10.73;;;5.87;;
3054;SDS011;1537;52.018;8.542;2023-03-01T18:13:08;11.27;;;6.77;;
3054;SDS011;1537;52.018;8.542;2023-03-01T18:16:33;9.70;;;5.83;;
3054;SDS011;1537;52.018;8.542;2023-03-01T18:19:57;10.40;;;5.77;;
3054;SDS011;1537;52.018;8.542;2023-03-01T18:23:20;11.23;;;6.30;;
3054;SDS011;1537;52.018;8.542;2023-03-01T18:26:44;10.83;;;6.03;;
3054;SDS011;1537;52.018;8.542;2023-03-01T18:30:08;9.13;;;6.23;;
3054;SDS011;1537;52.018;8.542;2023-03-01T18:33:34;9.23;;;6.80;;
3054;SDS011;1537;52.018;8.542;2023-03-01T18:36:58;18.37;;;8.20;;
3054;SDS011;1537;52.018;8.542;2023-03-01T18:40:30;12.20;;;6.60;;
3054;SDS011;1537;52.018;8.542;2023-03-01T18:43:54;9.03;;;5.80;;
3054;SDS011;1537;52.018;8.542;2023-03-01T18:47:18;13.83;;;7.20;;
3054;SDS011;1537;52.018;8.542;2023-03-01T18:50:43;10.80;;;7.00;;
3054;SDS011;1537;52.018;8.542;2023-03-01T18:54:07;12.23;;;6.80;;
3054;SDS011;1537;52.018;8.542;2023-03-01T18:57:33;10.33;;;6.20;;
3054;SDS011;1537;52.018;8.542;2023-03-01T19:00:57;9.30;;;5.73;;
3054;SDS011;1537;52.018;8.542;2023-03-01T19:04:23;14.40;;;7.80;;
3054;SDS011;1537;52.018;8.542;2023-03-01T19:07:49;11.23;;;7.27;;
3054;SDS011;1537;52.018;8.542;2023-03-01T19:11:13;17.80;;;8.53;;
3054;SDS011;1537;52.018;8.542;2023-03-01T19:14:38;9.70;;;6.90;;
3054;SDS011;1537;52.018;8.542;2023-03-01T19:18:02;11.27;;;6.97;;
3054;SDS011;1537;52.018;8.542;2023-03-01T19:21:27;13.47;;;7.27;;
3054;SDS011;1537;52.018;8.542;2023-03-01T19:24:54;12.73;;;7.93;;
3054;SDS011;1537;52.018;8.542;2023-03-01T19:28:17;11.47;;;7.03;;
3054;SDS011;1537;52.018;8.542;2023-03-01T19:31:41;10.03;;;6.47;;
3054;SDS011;1537;52.018;8.542;2023-03-01T19:35:05;12.60;;;7.20;;
3054;SDS011;1537;52.018;8.542;2023-03-01T19:38:29;11.77;;;6.73;;
3054;SDS011;1537;52.018;8.542;2023-03-01T19:41:54;10.43;;;6.80;;
3054;SDS011;1537;52.018;8.542;2023-03-01T19:45:18;11.50;;;6.50;;
3054;SDS011;1537;52.018;8.542;2023-03-01T19:48:54;14.00;;;6.63;;
3054;SDS011;1537;52.018;8.542;2023-03-01T19:52:19;11.93;;;7.60;;
3054;SDS011;1537;52.018;8.542;2023-03-01T19:55:43;14.93;;;7.37;;
3054;SDS011;1537;52.018;8.542;2023-03-01T19:59:08;11.77;;;7.60;;
3054;SDS011;1537;52.018;8.542;2023-03-01T20:02:32;11.97;;;6.43;;
3054;SDS011;1537;52.018;8.542;2023-03-01T20:05:55;10.53;;;6.10;;
3054;SDS011;1537;52.018;8.542;2023-03-01T20:09:19;11.87;;;6.90;;
3054;SDS011;1537;52.018;8.542;2023-03-01T20:12:43;13.47;;;6.63;;
3054;SDS011;1537;52.018;8.542;2023-03-01T20:16:08;10.63;;;7.17;;
3054;SDS011;1537;52.018;8.542;2023-03-01T20:19:32;10.43;;;5.70;;
3054;SDS011;1537;52.018;8.542;2023-03-01T20:22:56;8.60;;;5.27;;
3054;SDS011;1537;52.018;8.542;2023-03-01T20:26:20;9.90;;;6.17;;
3054;SDS011;1537;52.018;8.542;2023-03-01T20:29:46;13.63;;;6.30;;
3054;SDS011;1537;52.018;8.542;2023-03-01T20:33:11;9.90;;;6.37;;
3054;SDS011;1537;52.018;8.542;2023-03-01T20:36:35;9.77;;;5.90;;
3054;SDS011;1537;52.018;8.542;2023-03-01T20:40:01;11.80;;;7.53;;
3054;SDS011;1537;52.018;8.542;2023-03-01T20:43:25;15.40;;;7.60;;
3054;SDS011;1537;52.018;8.542;2023-03-01T20:46:49;11.57;;;6.93;;
3054;SDS011;1537;52.018;8.542;2023-03-01T20:50:14;17.23;;;7.30;;
3054;SDS011;1537;52.018;8.542;2023-03-01T20:53:39;13.70;;;8.13;;
3054;SDS011;1537;52.018;8.542;2023-03-01T20:57:03;15.60;;;7.77;;
3054;SDS011;1537;52.018;8.542;2023-03-01T21:00:26;15.50;;;8.10;;
3054;SDS011;1537;52.018;8.542;2023-03-01T21:03:53;16.23;;;7.67;;
3054;SDS011;1537;52.018;8.542;2023-03-01T21:07:18;14.43;;;7.83;;
3054;SDS011;1537;52.018;8.542;2023-03-01T21:10:42;13.20;;;7.37;;
3054;SDS011;1537;52.018;8.542;2023-03-01T21:14:11;19.73;;;7.70;;
3054;SDS011;1537;52.018;8.542;2023-03-01T21:17:37;12.50;;;7.13;;
3054;SDS011;1537;52.018;8.542;2023-03-01T21:21:02;10.00;;;7.37;;
3054;SDS011;1537;52.018;8.542;2023-03-01T21:24:28;16.60;;;9.00;;
3054;SDS011;1537;52.018;8.542;2023-03-01T21:27:52;12.57;;;7.63;;